Main page
METAR-TAF:

METAR-TAF

Airports :

Capitán FAP Víctor Montes Arias International Airport

Talara, Peru

latitude: 04-34S, longitude: 081-15W, elevation: 85 m

Current weather observation

The report was made 23 minutes ago, at 13:00 UTC
Wind 8 kt from the Southeast
Temperature 23°C
Humidity 78%
Pressure 1015 hPa
Visibility 10 km or more
no clouds below 1500 m and no cumulonimbus

METAR: SPYL 281300Z 14008KT CAVOK 23/19 Q1015 RMK TX29.5/TN19.5 BIRD HAZARD RWY 17/35 PP000

Time: 08:23 (13:23 UTC)

Forecast

The report was made 23 minutes ago, at 13:00 UTC
Forecast valid from 27 at 12 UTC to 28 at 12 UTC
Wind 6 kt from the East/Southeast
Visibility 10 km or more
no clouds below 1500 m and no cumulonimbus
Temporary
from 27 at 18 UTC to 27 at 22 UTC
Wind 12 kt from the South

TAF: SPYL 271300Z 2712/2812 12006KT CAVOK TX29/2719Z TN18/2811Z TEMPO 2718/2722 18012KT

Weather observations and forecasts of more than 4000 airports (METAR and TAF reports).

The available stations are represented by yellow and red dots on the map.

Hover mouse over dot to see the name of the station.

Then click to see weather observations and forecasts.

To change the map : click on the green buttons with a black cross to zoom in, on the green button with a dash to zoom out, or on the green arrows for adjacent maps.


METAR-TAF: